sensor_id;sensor_type;location;lat;lon;timestamp;temperature;humidity
75769;DHT22;64379;48.888;8.330;2023-02-15T00:01:46;0.80;90.20
75769;DHT22;64379;48.888;8.330;2023-02-15T00:04:19;0.80;90.20
75769;DHT22;64379;48.888;8.330;2023-02-15T00:06:45;0.80;90.20
75769;DHT22;64379;48.888;8.330;2023-02-15T00:09:11;0.90;90.20
75769;DHT22;64379;48.888;8.330;2023-02-15T00:11:37;1.00;90.20
75769;DHT22;64379;48.888;8.330;2023-02-15T00:14:13;0.90;90.10
75769;DHT22;64379;48.888;8.330;2023-02-15T00:16:40;0.80;90.00
75769;DHT22;64379;48.888;8.330;2023-02-15T00:19:06;0.80;90.00
75769;DHT22;64379;48.888;8.330;2023-02-15T00:21:33;0.80;90.00
75769;DHT22;64379;48.888;8.330;2023-02-15T00:24:01;0.80;89.80
75769;DHT22;64379;48.888;8.330;2023-02-15T00:26:28;0.80;89.70
75769;DHT22;64379;48.888;8.330;2023-02-15T00:28:54;0.80;89.80
75769;DHT22;64379;48.888;8.330;2023-02-15T00:31:20;0.70;89.80
75769;DHT22;64379;48.888;8.330;2023-02-15T00:33:46;0.60;89.80
75769;DHT22;64379;48.888;8.330;2023-02-15T00:36:12;0.60;89.90
75769;DHT22;64379;48.888;8.330;2023-02-15T00:38:38;0.60;89.90
75769;DHT22;64379;48.888;8.330;2023-02-15T00:41:06;0.60;90.00
75769;DHT22;64379;48.888;8.330;2023-02-15T00:43:32;0.50;90.10
75769;DHT22;64379;48.888;8.330;2023-02-15T00:45:58;0.60;90.20
75769;DHT22;64379;48.888;8.330;2023-02-15T00:48:24;0.80;90.30
75769;DHT22;64379;48.888;8.330;2023-02-15T00:50:52;0.60;90.40
75769;DHT22;64379;48.888;8.330;2023-02-15T00:53:18;0.60;90.40
75769;DHT22;64379;48.888;8.330;2023-02-15T00:55:43;0.60;90.50
75769;DHT22;64379;48.888;8.330;2023-02-15T00:58:10;0.50;90.50
75769;DHT22;64379;48.888;8.330;2023-02-15T01:00:36;0.50;90.60
75769;DHT22;64379;48.888;8.330;2023-02-15T01:03:03;0.60;90.70
75769;DHT22;64379;48.888;8.330;2023-02-15T01:05:29;0.60;90.70
75769;DHT22;64379;48.888;8.330;2023-02-15T01:07:55;0.60;90.70
75769;DHT22;64379;48.888;8.330;2023-02-15T01:10:21;0.60;90.60
75769;DHT22;64379;48.888;8.330;2023-02-15T01:12:46;0.70;90.60
75769;DHT22;64379;48.888;8.330;2023-02-15T01:15:12;0.80;90.60
75769;DHT22;64379;48.888;8.330;2023-02-15T01:17:38;0.80;90.50
75769;DHT22;64379;48.888;8.330;2023-02-15T01:20:04;0.80;90.40
75769;DHT22;64379;48.888;8.330;2023-02-15T01:22:30;0.80;90.30
75769;DHT22;64379;48.888;8.330;2023-02-15T01:24:56;0.80;90.20
75769;DHT22;64379;48.888;8.330;2023-02-15T01:27:21;0.90;90.00
75769;DHT22;64379;48.888;8.330;2023-02-15T01:29:47;0.90;89.80
75769;DHT22;64379;48.888;8.330;2023-02-15T01:32:13;0.80;89.50
75769;DHT22;64379;48.888;8.330;2023-02-15T01:34:38;0.70;89.10
75769;DHT22;64379;48.888;8.330;2023-02-15T01:37:04;0.80;89.10
75769;DHT22;64379;48.888;8.330;2023-02-15T01:39:29;0.60;89.00
75769;DHT22;64379;48.888;8.330;2023-02-15T01:41:55;0.60;89.00
75769;DHT22;64379;48.888;8.330;2023-02-15T01:44:53;0.60;89.00
75769;DHT22;64379;48.888;8.330;2023-02-15T01:52:40;0.70;89.10
75769;DHT22;64379;48.888;8.330;2023-02-15T01:55:10;0.80;89.10
75769;DHT22;64379;48.888;8.330;2023-02-15T01:57:38;0.80;89.10
75769;DHT22;64379;48.888;8.330;2023-02-15T02:00:06;0.80;89.10
75769;DHT22;64379;48.888;8.330;2023-02-15T02:02:32;0.80;89.00
75769;DHT22;64379;48.888;8.330;2023-02-15T02:05:03;0.60;88.90
75769;DHT22;64379;48.888;8.330;2023-02-15T02:07:35;0.60;88.90
75769;DHT22;64379;48.888;8.330;2023-02-15T02:10:02;0.60;89.00
75769;DHT22;64379;48.888;8.330;2023-02-15T02:12:28;0.60;89.00
75769;DHT22;64379;48.888;8.330;2023-02-15T02:14:55;0.60;88.90
75769;DHT22;64379;48.888;8.330;2023-02-15T02:23:18;0.50;89.10
75769;DHT22;64379;48.888;8.330;2023-02-15T02:33:47;0.50;89.20
75769;DHT22;64379;48.888;8.330;2023-02-15T02:41:36;0.60;89.00
75769;DHT22;64379;48.888;8.330;2023-02-15T02:44:47;0.60;88.90
75769;DHT22;64379;48.888;8.330;2023-02-15T02:47:31;0.50;88.70
75769;DHT22;64379;48.888;8.330;2023-02-15T02:50:05;0.60;88.50
75769;DHT22;64379;48.888;8.330;2023-02-15T02:55:18;0.60;88.30
75769;DHT22;64379;48.888;8.330;2023-02-15T02:58:11;0.50;88.10
75769;DHT22;64379;48.888;8.330;2023-02-15T03:03:36;0.50;87.80
75769;DHT22;64379;48.888;8.330;2023-02-15T03:06:06;0.40;87.70
75769;DHT22;64379;48.888;8.330;2023-02-15T03:08:37;0.50;87.70
75769;DHT22;64379;48.888;8.330;2023-02-15T03:11:04;0.40;87.50
75769;DHT22;64379;48.888;8.330;2023-02-15T03:13:31;0.40;87.70
75769;DHT22;64379;48.888;8.330;2023-02-15T03:15:58;0.40;87.80
75769;DHT22;64379;48.888;8.330;2023-02-15T03:18:46;0.40;87.50
75769;DHT22;64379;48.888;8.330;2023-02-15T03:21:25;0.30;87.50
75769;DHT22;64379;48.888;8.330;2023-02-15T03:23:56;0.20;87.60
75769;DHT22;64379;48.888;8.330;2023-02-15T03:26:24;0.10;87.80
75769;DHT22;64379;48.888;8.330;2023-02-15T03:28:53;0.00;88.00
75769;DHT22;64379;48.888;8.330;2023-02-15T03:31:22;0.00;88.20
75769;DHT22;64379;48.888;8.330;2023-02-15T03:33:54;0.00;88.40
75769;DHT22;64379;48.888;8.330;2023-02-15T03:39:02;0.00;88.60
75769;DHT22;64379;48.888;8.330;2023-02-15T03:41:33;0.10;88.80
75769;DHT22;64379;48.888;8.330;2023-02-15T03:44:06;0.20;88.90
75769;DHT22;64379;48.888;8.330;2023-02-15T03:49:13;0.30;88.90
75769;DHT22;64379;48.888;8.330;2023-02-15T03:51:42;0.30;88.70
75769;DHT22;64379;48.888;8.330;2023-02-15T03:54:21;0.40;88.50
75769;DHT22;64379;48.888;8.330;2023-02-15T03:57:40;0.40;88.40
75769;DHT22;64379;48.888;8.330;2023-02-15T04:00:22;0.30;88.10
75769;DHT22;64379;48.888;8.330;2023-02-15T04:03:40;0.20;88.10
75769;DHT22;64379;48.888;8.330;2023-02-15T04:06:07;0.30;88.20
75769;DHT22;64379;48.888;8.330;2023-02-15T04:08:33;0.30;88.20
75769;DHT22;64379;48.888;8.330;2023-02-15T04:11:17;0.30;88.20
75769;DHT22;64379;48.888;8.330;2023-02-15T04:13:43;0.30;88.20
75769;DHT22;64379;48.888;8.330;2023-02-15T04:16:09;0.30;88.20
75769;DHT22;64379;48.888;8.330;2023-02-15T04:21:21;0.40;88.20
75769;DHT22;64379;48.888;8.330;2023-02-15T04:24:05;0.30;88.20
75769;DHT22;64379;48.888;8.330;2023-02-15T04:26:50;0.30;88.30
75769;DHT22;64379;48.888;8.330;2023-02-15T04:29:21;0.30;88.50
75769;DHT22;64379;48.888;8.330;2023-02-15T04:31:47;0.30;88.60
75769;DHT22;64379;48.888;8.330;2023-02-15T04:34:14;0.30;88.60
75769;DHT22;64379;48.888;8.330;2023-02-15T04:36:39;0.30;88.70
75769;DHT22;64379;48.888;8.330;2023-02-15T04:39:06;0.30;88.60
75769;DHT22;64379;48.888;8.330;2023-02-15T04:41:32;0.40;88.60
75769;DHT22;64379;48.888;8.330;2023-02-15T04:43:58;0.20;88.50
75769;DHT22;64379;48.888;8.330;2023-02-15T04:46:26;0.10;88.60
75769;DHT22;64379;48.888;8.330;2023-02-15T04:48:52;0.00;88.90
75769;DHT22;64379;48.888;8.330;2023-02-15T04:51:18;0.00;89.10
75769;DHT22;64379;48.888;8.330;2023-02-15T04:53:43;0.00;89.40
75769;DHT22;64379;48.888;8.330;2023-02-15T04:56:09;0.00;89.50
75769;DHT22;64379;48.888;8.330;2023-02-15T04:58:34;0.00;89.60
75769;DHT22;64379;48.888;8.330;2023-02-15T05:01:00;0.00;89.60
75769;DHT22;64379;48.888;8.330;2023-02-15T05:03:26;0.00;89.70
75769;DHT22;64379;48.888;8.330;2023-02-15T05:05:52;0.10;89.70
75769;DHT22;64379;48.888;8.330;2023-02-15T05:08:17;0.20;89.70
75769;DHT22;64379;48.888;8.330;2023-02-15T05:10:43;0.30;89.70
75769;DHT22;64379;48.888;8.330;2023-02-15T05:13:09;0.40;89.60
75769;DHT22;64379;48.888;8.330;2023-02-15T05:15:34;0.50;89.50
75769;DHT22;64379;48.888;8.330;2023-02-15T05:18:00;0.60;89.30
75769;DHT22;64379;48.888;8.330;2023-02-15T05:20:27;0.60;89.00
75769;DHT22;64379;48.888;8.330;2023-02-15T05:22:55;0.50;88.60
75769;DHT22;64379;48.888;8.330;2023-02-15T05:25:21;0.50;88.20
75769;DHT22;64379;48.888;8.330;2023-02-15T05:28:05;0.50;88.00
75769;DHT22;64379;48.888;8.330;2023-02-15T05:30:46;0.40;87.60
75769;DHT22;64379;48.888;8.330;2023-02-15T05:33:12;0.30;87.50
75769;DHT22;64379;48.888;8.330;2023-02-15T05:35:37;0.20;87.60
75769;DHT22;64379;48.888;8.330;2023-02-15T05:38:03;0.20;87.90
75769;DHT22;64379;48.888;8.330;2023-02-15T05:40:29;0.10;87.90
75769;DHT22;64379;48.888;8.330;2023-02-15T05:42:56;0.10;88.10
75769;DHT22;64379;48.888;8.330;2023-02-15T05:45:22;0.30;88.20
75769;DHT22;64379;48.888;8.330;2023-02-15T05:47:47;0.40;88.10
75769;DHT22;64379;48.888;8.330;2023-02-15T05:50:13;0.30;87.90
75769;DHT22;64379;48.888;8.330;2023-02-15T05:52:39;0.30;87.70
75769;DHT22;64379;48.888;8.330;2023-02-15T05:55:05;0.30;87.70
75769;DHT22;64379;48.888;8.330;2023-02-15T05:57:31;0.10;87.70
75769;DHT22;64379;48.888;8.330;2023-02-15T05:59:57;0.00;87.90
75769;DHT22;64379;48.888;8.330;2023-02-15T06:02:22;0.00;88.10
75769;DHT22;64379;48.888;8.330;2023-02-15T06:04:48;0.00;88.30
75769;DHT22;64379;48.888;8.330;2023-02-15T06:07:14;-0.10;88.50
75769;DHT22;64379;48.888;8.330;2023-02-15T06:09:39;-0.10;88.60
75769;DHT22;64379;48.888;8.330;2023-02-15T06:12:05;-0.10;88.70
75769;DHT22;64379;48.888;8.330;2023-02-15T06:14:31;-0.10;88.70
75769;DHT22;64379;48.888;8.330;2023-02-15T06:16:56;-0.10;88.80
75769;DHT22;64379;48.888;8.330;2023-02-15T06:19:22;-0.10;88.90
75769;DHT22;64379;48.888;8.330;2023-02-15T06:21:48;-0.10;89.00
75769;DHT22;64379;48.888;8.330;2023-02-15T06:24:21;-0.10;89.00
75769;DHT22;64379;48.888;8.330;2023-02-15T06:26:47;-0.10;89.00
75769;DHT22;64379;48.888;8.330;2023-02-15T06:29:13;-0.10;89.00
75769;DHT22;64379;48.888;8.330;2023-02-15T06:31:39;-0.10;89.00
75769;DHT22;64379;48.888;8.330;2023-02-15T06:34:04;-0.20;89.00
75769;DHT22;64379;48.888;8.330;2023-02-15T06:36:30;-0.20;88.90
75769;DHT22;64379;48.888;8.330;2023-02-15T06:38:57;-0.20;88.90
75769;DHT22;64379;48.888;8.330;2023-02-15T06:41:23;-0.20;88.90
75769;DHT22;64379;48.888;8.330;2023-02-15T06:43:49;-0.20;88.90
75769;DHT22;64379;48.888;8.330;2023-02-15T06:46:14;-0.20;88.90
75769;DHT22;64379;48.888;8.330;2023-02-15T06:48:40;-0.20;88.80
75769;DHT22;64379;48.888;8.330;2023-02-15T06:51:06;-0.20;88.70
75769;DHT22;64379;48.888;8.330;2023-02-15T06:53:31;-0.30;88.70
75769;DHT22;64379;48.888;8.330;2023-02-15T06:56:05;-0.30;88.70
75769;DHT22;64379;48.888;8.330;2023-02-15T06:58:33;-0.30;88.80
75769;DHT22;64379;48.888;8.330;2023-02-15T07:00:59;-0.30;89.00
75769;DHT22;64379;48.888;8.330;2023-02-15T07:03:24;-0.10;89.00
75769;DHT22;64379;48.888;8.330;2023-02-15T07:05:57;-0.20;88.90
75769;DHT22;64379;48.888;8.330;2023-02-15T07:08:24;-0.20;88.80
75769;DHT22;64379;48.888;8.330;2023-02-15T07:10:51;-0.10;88.70
75769;DHT22;64379;48.888;8.330;2023-02-15T07:13:17;-0.10;88.70
75769;DHT22;64379;48.888;8.330;2023-02-15T07:15:43;-0.10;88.60
75769;DHT22;64379;48.888;8.330;2023-02-15T07:18:09;-0.10;88.60
75769;DHT22;64379;48.888;8.330;2023-02-15T07:20:36;-0.10;88.60
75769;DHT22;64379;48.888;8.330;2023-02-15T07:23:03;-0.20;88.50
75769;DHT22;64379;48.888;8.330;2023-02-15T07:25:28;-0.10;88.40
75769;DHT22;64379;48.888;8.330;2023-02-15T07:28:03;-0.10;88.50
75769;DHT22;64379;48.888;8.330;2023-02-15T07:30:29;-0.10;88.50
75769;DHT22;64379;48.888;8.330;2023-02-15T07:32:58;0.00;88.50
75769;DHT22;64379;48.888;8.330;2023-02-15T07:35:52;0.00;88.50
75769;DHT22;64379;48.888;8.330;2023-02-15T07:38:19;0.00;88.40
75769;DHT22;64379;48.888;8.330;2023-02-15T07:40:45;0.00;88.50
75769;DHT22;64379;48.888;8.330;2023-02-15T07:43:11;0.00;88.40
75769;DHT22;64379;48.888;8.330;2023-02-15T07:45:38;0.00;88.40
75769;DHT22;64379;48.888;8.330;2023-02-15T07:48:04;0.00;88.30
75769;DHT22;64379;48.888;8.330;2023-02-15T07:50:31;-0.10;88.30
75769;DHT22;64379;48.888;8.330;2023-02-15T07:52:57;-0.10;88.40
75769;DHT22;64379;48.888;8.330;2023-02-15T07:55:23;-0.10;88.60
75769;DHT22;64379;48.888;8.330;2023-02-15T07:57:50;0.00;88.70
75769;DHT22;64379;48.888;8.330;2023-02-15T08:00:18;0.00;88.60
75769;DHT22;64379;48.888;8.330;2023-02-15T08:02:50;0.00;88.40
75769;DHT22;64379;48.888;8.330;2023-02-15T08:05:36;0.00;88.30
75769;DHT22;64379;48.888;8.330;2023-02-15T08:08:02;0.00;88.30
75769;DHT22;64379;48.888;8.330;2023-02-15T08:10:27;0.00;88.30
75769;DHT22;64379;48.888;8.330;2023-02-15T08:13:11;0.10;88.30
75769;DHT22;64379;48.888;8.330;2023-02-15T08:15:37;0.20;88.20
75769;DHT22;64379;48.888;8.330;2023-02-15T08:18:03;0.40;88.20
75769;DHT22;64379;48.888;8.330;2023-02-15T08:20:28;0.50;87.80
75769;DHT22;64379;48.888;8.330;2023-02-15T08:22:54;0.60;87.50
75769;DHT22;64379;48.888;8.330;2023-02-15T08:25:19;0.40;86.80
75769;DHT22;64379;48.888;8.330;2023-02-15T08:27:45;0.60;86.70
75769;DHT22;64379;48.888;8.330;2023-02-15T08:30:11;0.80;86.90
75769;DHT22;64379;48.888;8.330;2023-02-15T08:32:37;1.00;86.60
75769;DHT22;64379;48.888;8.330;2023-02-15T08:35:03;1.10;85.90
75769;DHT22;64379;48.888;8.330;2023-02-15T08:37:28;1.00;84.80
75769;DHT22;64379;48.888;8.330;2023-02-15T08:39:54;0.80;84.80
75769;DHT22;64379;48.888;8.330;2023-02-15T08:42:19;1.00;85.20
75769;DHT22;64379;48.888;8.330;2023-02-15T08:44:46;1.00;84.80
75769;DHT22;64379;48.888;8.330;2023-02-15T08:47:12;0.90;84.00
75769;DHT22;64379;48.888;8.330;2023-02-15T08:49:37;0.80;84.40
75769;DHT22;64379;48.888;8.330;2023-02-15T08:52:03;0.60;84.40
75769;DHT22;64379;48.888;8.330;2023-02-15T08:54:29;0.50;84.50
75769;DHT22;64379;48.888;8.330;2023-02-15T08:56:54;0.50;84.70
75769;DHT22;64379;48.888;8.330;2023-02-15T08:59:22;0.60;84.30
75769;DHT22;64379;48.888;8.330;2023-02-15T09:01:49;0.50;84.70
75769;DHT22;64379;48.888;8.330;2023-02-15T09:04:15;0.70;84.50
75769;DHT22;64379;48.888;8.330;2023-02-15T09:06:42;1.00;84.10
75769;DHT22;64379;48.888;8.330;2023-02-15T09:09:10;1.30;82.90
75769;DHT22;64379;48.888;8.330;2023-02-15T09:11:39;1.40;81.70
75769;DHT22;64379;48.888;8.330;2023-02-15T09:14:14;1.10;81.50
75769;DHT22;64379;48.888;8.330;2023-02-15T09:16:41;1.20;82.20
75769;DHT22;64379;48.888;8.330;2023-02-15T09:19:07;1.50;81.50
75769;DHT22;64379;48.888;8.330;2023-02-15T09:21:36;1.70;80.10
75769;DHT22;64379;48.888;8.330;2023-02-15T09:24:03;1.80;79.90
75769;DHT22;64379;48.888;8.330;2023-02-15T09:26:31;1.70;80.00
75769;DHT22;64379;48.888;8.330;2023-02-15T09:28:59;1.50;80.50
75769;DHT22;64379;48.888;8.330;2023-02-15T09:31:32;1.10;81.40
75769;DHT22;64379;48.888;8.330;2023-02-15T09:33:59;1.00;82.20
75769;DHT22;64379;48.888;8.330;2023-02-15T09:36:33;1.00;82.90
75769;DHT22;64379;48.888;8.330;2023-02-15T09:39:32;1.00;83.70
75769;DHT22;64379;48.888;8.330;2023-02-15T09:43:08;1.10;83.40
75769;DHT22;64379;48.888;8.330;2023-02-15T09:45:26;1.40;82.80
75769;DHT22;64379;48.888;8.330;2023-02-15T09:48:11;1.40;81.10
75769;DHT22;64379;48.888;8.330;2023-02-15T09:50:58;1.20;82.20
75769;DHT22;64379;48.888;8.330;2023-02-15T10:01:51;1.00;84.10
75769;DHT22;64379;48.888;8.330;2023-02-15T10:09:48;1.80;80.50
75769;DHT22;64379;48.888;8.330;2023-02-15T10:15:24;2.00;79.80
75769;DHT22;64379;48.888;8.330;2023-02-15T10:25:53;2.50;77.50
75769;DHT22;64379;48.888;8.330;2023-02-15T10:28:36;2.50;77.50
75769;DHT22;64379;48.888;8.330;2023-02-15T10:34:14;1.90;78.90
75769;DHT22;64379;48.888;8.330;2023-02-15T10:40:04;1.70;81.10
75769;DHT22;64379;48.888;8.330;2023-02-15T10:50:57;1.90;79.80
75769;DHT22;64379;48.888;8.330;2023-02-15T11:01:27;1.80;80.20
75769;DHT22;64379;48.888;8.330;2023-02-15T11:06:56;1.90;80.90
75769;DHT22;64379;48.888;8.330;2023-02-15T11:09:25;2.50;79.30
75769;DHT22;64379;48.888;8.330;2023-02-15T11:11:53;3.00;77.30
75769;DHT22;64379;48.888;8.330;2023-02-15T11:17:17;2.90;76.00
75769;DHT22;64379;48.888;8.330;2023-02-15T11:20:25;2.50;78.10
75769;DHT22;64379;48.888;8.330;2023-02-15T11:22:53;2.40;78.90
75769;DHT22;64379;48.888;8.330;2023-02-15T11:25:30;2.80;77.80
75769;DHT22;64379;48.888;8.330;2023-02-15T11:27:56;2.80;77.90
75769;DHT22;64379;48.888;8.330;2023-02-15T11:30:24;2.90;77.40
75769;DHT22;64379;48.888;8.330;2023-02-15T11:32:54;3.10;75.90
75769;DHT22;64379;48.888;8.330;2023-02-15T11:35:22;3.30;75.00
75769;DHT22;64379;48.888;8.330;2023-02-15T11:40:35;3.50;73.80
75769;DHT22;64379;48.888;8.330;2023-02-15T11:45:47;3.60;74.70
75769;DHT22;64379;48.888;8.330;2023-02-15T11:48:14;3.70;75.00
75769;DHT22;64379;48.888;8.330;2023-02-15T11:50:41;3.50;73.50
75769;DHT22;64379;48.888;8.330;2023-02-15T11:53:18;2.80;76.30
75769;DHT22;64379;48.888;8.330;2023-02-15T11:55:48;3.50;76.30
75769;DHT22;64379;48.888;8.330;2023-02-15T12:03:47;4.50;71.50
75769;DHT22;64379;48.888;8.330;2023-02-15T12:06:23;4.10;72.90
75769;DHT22;64379;48.888;8.330;2023-02-15T12:09:06;3.90;73.80
75769;DHT22;64379;48.888;8.330;2023-02-15T12:11:37;4.00;74.70
75769;DHT22;64379;48.888;8.330;2023-02-15T12:14:06;3.30;75.00
75769;DHT22;64379;48.888;8.330;2023-02-15T12:16:53;3.00;77.00
75769;DHT22;64379;48.888;8.330;2023-02-15T12:19:32;3.10;76.80
75769;DHT22;64379;48.888;8.330;2023-02-15T12:22:01;3.20;76.40
75769;DHT22;64379;48.888;8.330;2023-02-15T12:24:30;3.50;75.90
75769;DHT22;64379;48.888;8.330;2023-02-15T12:27:23;3.70;75.30
75769;DHT22;64379;48.888;8.330;2023-02-15T12:30:00;3.60;74.70
75769;DHT22;64379;48.888;8.330;2023-02-15T12:32:34;3.90;75.20
75769;DHT22;64379;48.888;8.330;2023-02-15T12:35:13;4.10;74.30
75769;DHT22;64379;48.888;8.330;2023-02-15T12:37:39;4.40;73.00
75769;DHT22;64379;48.888;8.330;2023-02-15T12:40:23;4.50;72.80
75769;DHT22;64379;48.888;8.330;2023-02-15T12:42:49;4.50;72.40
75769;DHT22;64379;48.888;8.330;2023-02-15T12:45:25;4.20;72.90
75769;DHT22;64379;48.888;8.330;2023-02-15T12:50:48;4.50;72.00
75769;DHT22;64379;48.888;8.330;2023-02-15T12:53:18;4.90;71.60
75769;DHT22;64379;48.888;8.330;2023-02-15T12:58:20;4.50;73.30
75769;DHT22;64379;48.888;8.330;2023-02-15T13:00:47;4.70;72.10
75769;DHT22;64379;48.888;8.330;2023-02-15T13:03:18;4.60;72.80
75769;DHT22;64379;48.888;8.330;2023-02-15T13:05:48;4.00;74.00
75769;DHT22;64379;48.888;8.330;2023-02-15T13:11:00;3.30;76.70
75769;DHT22;64379;48.888;8.330;2023-02-15T13:13:29;3.10;77.50
75769;DHT22;64379;48.888;8.330;2023-02-15T13:16:05;3.50;77.60
75769;DHT22;64379;48.888;8.330;2023-02-15T13:18:37;3.90;76.10
75769;DHT22;64379;48.888;8.330;2023-02-15T13:21:21;4.20;74.90
75769;DHT22;64379;48.888;8.330;2023-02-15T13:23:52;4.20;74.70
75769;DHT22;64379;48.888;8.330;2023-02-15T13:26:21;3.90;75.60
75769;DHT22;64379;48.888;8.330;2023-02-15T13:28:51;4.30;74.90
75769;DHT22;64379;48.888;8.330;2023-02-15T13:31:20;4.50;73.80
75769;DHT22;64379;48.888;8.330;2023-02-15T13:34:09;4.90;72.40
75769;DHT22;64379;48.888;8.330;2023-02-15T13:41:56;5.00;71.40
75769;DHT22;64379;48.888;8.330;2023-02-15T13:52:40;4.30;74.40
75769;DHT22;64379;48.888;8.330;2023-02-15T14:00:18;5.10;72.00
75769;DHT22;64379;48.888;8.330;2023-02-15T14:08:39;5.00;72.40
75769;DHT22;64379;48.888;8.330;2023-02-15T14:13:44;5.60;71.30
75769;DHT22;64379;48.888;8.330;2023-02-15T14:16:53;5.80;71.20
75769;DHT22;64379;48.888;8.330;2023-02-15T14:22:15;5.00;73.70
75769;DHT22;64379;48.888;8.330;2023-02-15T14:25:05;5.10;72.10
75769;DHT22;64379;48.888;8.330;2023-02-15T14:30:28;4.60;73.80
75769;DHT22;64379;48.888;8.330;2023-02-15T14:33:04;4.70;74.00
75769;DHT22;64379;48.888;8.330;2023-02-15T14:35:31;4.60;73.70
75769;DHT22;64379;48.888;8.330;2023-02-15T14:46:50;4.50;74.50
75769;DHT22;64379;48.888;8.330;2023-02-15T14:49:30;4.50;74.40
75769;DHT22;64379;48.888;8.330;2023-02-15T14:52:02;4.50;74.70
75769;DHT22;64379;48.888;8.330;2023-02-15T14:59:36;4.10;75.60
75769;DHT22;64379;48.888;8.330;2023-02-15T15:04:36;4.20;75.70
75769;DHT22;64379;48.888;8.330;2023-02-15T15:07:20;4.00;76.10
75769;DHT22;64379;48.888;8.330;2023-02-15T15:09:58;3.90;77.00
75769;DHT22;64379;48.888;8.330;2023-02-15T15:14:52;3.80;76.90
75769;DHT22;64379;48.888;8.330;2023-02-15T15:20:11;3.50;78.40
75769;DHT22;64379;48.888;8.330;2023-02-15T15:22:40;3.30;79.30
75769;DHT22;64379;48.888;8.330;2023-02-15T15:25:39;3.20;79.50
75769;DHT22;64379;48.888;8.330;2023-02-15T15:27:59;3.30;79.70
75769;DHT22;64379;48.888;8.330;2023-02-15T15:36:18;3.30;80.00
75769;DHT22;64379;48.888;8.330;2023-02-15T15:41:41;3.30;79.70
75769;DHT22;64379;48.888;8.330;2023-02-15T15:49:42;3.30;80.40
75769;DHT22;64379;48.888;8.330;2023-02-15T15:52:26;3.30;80.70
75769;DHT22;64379;48.888;8.330;2023-02-15T15:54:57;3.30;80.60
75769;DHT22;64379;48.888;8.330;2023-02-15T15:57:37;3.30;80.60
75769;DHT22;64379;48.888;8.330;2023-02-15T16:00:04;3.30;80.40
75769;DHT22;64379;48.888;8.330;2023-02-15T16:02:51;3.20;80.50
75769;DHT22;64379;48.888;8.330;2023-02-15T16:05:16;3.10;81.00
75769;DHT22;64379;48.888;8.330;2023-02-15T16:07:42;3.00;81.50
75769;DHT22;64379;48.888;8.330;2023-02-15T16:10:26;2.90;81.70
75769;DHT22;64379;48.888;8.330;2023-02-15T16:12:53;2.80;82.10
75769;DHT22;64379;48.888;8.330;2023-02-15T16:15:34;2.80;82.40
75769;DHT22;64379;48.888;8.330;2023-02-15T16:18:01;2.70;82.30
75769;DHT22;64379;48.888;8.330;2023-02-15T16:20:32;2.70;82.40
75769;DHT22;64379;48.888;8.330;2023-02-15T16:23:49;2.50;82.80
75769;DHT22;64379;48.888;8.330;2023-02-15T16:26:01;2.40;83.60
75769;DHT22;64379;48.888;8.330;2023-02-15T16:28:31;2.30;84.00
75769;DHT22;64379;48.888;8.330;2023-02-15T16:31:17;2.30;84.10
75769;DHT22;64379;48.888;8.330;2023-02-15T16:33:43;2.30;84.40
75769;DHT22;64379;48.888;8.330;2023-02-15T16:36:13;2.30;84.50
75769;DHT22;64379;48.888;8.330;2023-02-15T16:41:13;2.30;84.20
75769;DHT22;64379;48.888;8.330;2023-02-15T16:43:40;2.20;84.30
75769;DHT22;64379;48.888;8.330;2023-02-15T16:46:11;2.20;84.50
75769;DHT22;64379;48.888;8.330;2023-02-15T16:48:41;2.10;84.60
75769;DHT22;64379;48.888;8.330;2023-02-15T16:51:07;2.00;84.60
75769;DHT22;64379;48.888;8.330;2023-02-15T16:53:34;2.00;84.90
75769;DHT22;64379;48.888;8.330;2023-02-15T16:56:02;1.90;84.70
75769;DHT22;64379;48.888;8.330;2023-02-15T16:58:41;1.80;84.50
75769;DHT22;64379;48.888;8.330;2023-02-15T17:01:10;1.50;84.90
75769;DHT22;64379;48.888;8.330;2023-02-15T17:03:37;1.50;85.00
75769;DHT22;64379;48.888;8.330;2023-02-15T17:06:22;1.50;85.20
75769;DHT22;64379;48.888;8.330;2023-02-15T17:08:48;1.40;85.40
75769;DHT22;64379;48.888;8.330;2023-02-15T17:11:19;1.30;85.30
75769;DHT22;64379;48.888;8.330;2023-02-15T17:17:00;1.00;86.00
75769;DHT22;64379;48.888;8.330;2023-02-15T17:19:29;1.00;86.10
